createdAt,value
2023-05-22T00:03:15.060Z,10.88
2023-05-22T00:08:39.143Z,6.67
2023-05-22T00:14:01.401Z,8.78
2023-05-22T00:19:24.522Z,7.87
2023-05-22T00:24:47.194Z,8.43
2023-05-22T00:30:09.532Z,13.95
2023-05-22T00:35:31.879Z,8.98
2023-05-22T00:40:54.414Z,9.40
2023-05-22T00:46:20.077Z,8.83
2023-05-22T00:51:43.320Z,10.13
2023-05-22T00:57:06.743Z,10.10
2023-05-22T01:02:29.285Z,9.60
2023-05-22T01:07:52.743Z,9.58
2023-05-22T01:13:48.665Z,8.80
2023-05-22T01:19:48.003Z,11.75
2023-05-22T01:25:47.788Z,10.28
2023-05-22T01:31:16.711Z,11.43
2023-05-22T01:36:44.429Z,10.88
2023-05-22T01:42:06.802Z,10.48
2023-05-22T01:47:29.220Z,12.53
2023-05-22T01:53:21.588Z,11.97
2023-05-22T01:59:09.559Z,10.23
2023-05-22T02:04:35.015Z,14.00
2023-05-22T02:09:59.300Z,11.70
2023-05-22T02:15:21.849Z,12.00
2023-05-22T02:20:44.169Z,11.40
2023-05-22T02:26:07.595Z,10.18
2023-05-22T02:31:30.382Z,12.23
2023-05-22T02:36:53.452Z,15.32
2023-05-22T02:42:15.889Z,10.55
2023-05-22T02:47:38.541Z,10.43
2023-05-22T02:53:01.025Z,10.00
2023-05-22T02:58:25.743Z,16.95
2023-05-22T03:03:49.192Z,11.35
2023-05-22T03:09:11.950Z,11.68
2023-05-22T03:14:34.318Z,12.70
2023-05-22T03:19:56.643Z,11.65
2023-05-22T03:25:21.459Z,14.10
2023-05-22T03:30:44.848Z,8.58
2023-05-22T03:36:07.352Z,10.18
2023-05-22T03:41:30.461Z,15.10
2023-05-22T03:46:52.944Z,12.15
2023-05-22T03:52:16.751Z,13.18
2023-05-22T03:57:39.509Z,10.90
2023-05-22T04:03:01.971Z,14.15
2023-05-22T04:08:24.979Z,9.48
2023-05-22T04:13:48.300Z,12.63
2023-05-22T04:19:11.252Z,8.50
2023-05-22T04:24:34.270Z,12.25
2023-05-22T04:29:56.633Z,11.15
2023-05-22T04:35:20.161Z,11.63
2023-05-22T04:40:43.326Z,12.30
2023-05-22T04:46:05.641Z,11.90
2023-05-22T04:51:29.517Z,10.45
2023-05-22T04:56:52.417Z,11.68
2023-05-22T05:02:14.923Z,12.45
2023-05-22T05:07:37.866Z,16.87
2023-05-22T05:13:00.296Z,17.80
2023-05-22T05:18:22.798Z,15.18
2023-05-22T05:23:45.126Z,11.03
2023-05-22T05:29:07.553Z,15.50
2023-05-22T05:34:29.879Z,11.10
2023-05-22T05:39:52.262Z,12.93
2023-05-22T05:45:14.896Z,10.93
2023-05-22T05:50:37.393Z,11.08
2023-05-22T05:56:00.150Z,12.30
2023-05-22T06:01:24.673Z,14.33
2023-05-22T06:06:48.231Z,11.30
2023-05-22T06:17:43.870Z,14.53
2023-05-22T06:23:06.213Z,8.63
2023-05-22T06:28:28.510Z,11.90
2023-05-22T06:33:52.430Z,10.23
2023-05-22T06:39:14.983Z,10.83
2023-05-22T06:44:37.357Z,12.87
2023-05-22T06:49:59.727Z,8.83
2023-05-22T06:55:22.422Z,13.77
2023-05-22T07:00:44.850Z,7.08
2023-05-22T07:06:08.209Z,9.00
2023-05-22T07:11:30.679Z,9.53
2023-05-22T07:16:54.141Z,7.28
2023-05-22T07:22:16.672Z,11.18
2023-05-22T07:27:39.150Z,9.50
2023-05-22T07:33:01.633Z,10.32
2023-05-22T07:38:24.559Z,10.03
2023-05-22T07:43:47.084Z,6.97
2023-05-22T07:49:09.550Z,9.88
2023-05-22T07:54:32.440Z,7.47
2023-05-22T07:59:55.046Z,10.20
2023-05-22T08:05:17.725Z,7.47
2023-05-22T08:16:04.872Z,6.95
2023-05-22T08:21:27.257Z,6.73
2023-05-22T08:26:49.647Z,5.03
2023-05-22T08:32:12.353Z,6.63
2023-05-22T08:37:35.159Z,4.60
2023-05-22T08:42:59.296Z,6.37
2023-05-22T08:48:25.691Z,5.15
2023-05-22T08:53:50.146Z,7.47
2023-05-22T08:59:13.318Z,5.20
2023-05-22T09:04:37.535Z,7.20
2023-05-22T09:10:01.572Z,5.37
2023-05-22T09:15:28.076Z,5.22
2023-05-22T09:20:54.981Z,3.42
2023-05-22T09:26:18.838Z,6.92
2023-05-22T09:31:48.213Z,6.25
2023-05-22T09:37:15.418Z,5.00
2023-05-22T09:42:39.722Z,5.85
2023-05-22T09:48:03.931Z,4.83
2023-05-22T09:53:30.485Z,3.95
2023-05-22T09:58:55.483Z,7.80
2023-05-22T10:04:19.368Z,7.17
2023-05-22T10:09:44.607Z,4.50
2023-05-22T10:15:09.766Z,5.17
2023-05-22T10:20:33.345Z,5.87
2023-05-22T10:25:57.346Z,4.90
2023-05-22T10:31:34.411Z,3.20
2023-05-22T10:37:16.916Z,3.77
2023-05-22T10:42:34.217Z,7.47
2023-05-22T10:48:26.488Z,3.30
2023-05-22T10:53:54.216Z,4.33
2023-05-22T10:59:19.177Z,4.30
2023-05-22T11:04:43.781Z,5.13
2023-05-22T11:10:09.202Z,7.77
2023-05-22T11:15:39.016Z,6.60
2023-05-22T11:21:02.766Z,3.80
2023-05-22T11:26:40.097Z,6.53
2023-05-22T11:32:04.121Z,4.13
2023-05-22T11:37:27.268Z,5.15
2023-05-22T11:42:50.498Z,17.63
2023-05-22T11:48:15.890Z,4.55
2023-05-22T11:53:39.067Z,5.25
2023-05-22T11:59:02.810Z,4.50
2023-05-22T12:04:26.115Z,7.53
2023-05-22T12:09:51.189Z,2.90
2023-05-22T12:15:13.846Z,3.90
2023-05-22T12:20:38.259Z,4.35
2023-05-22T12:26:04.568Z,4.15
2023-05-22T12:31:33.708Z,4.67
2023-05-22T12:42:17.775Z,4.03
2023-05-22T12:47:42.280Z,3.05
2023-05-22T12:53:04.988Z,4.05
2023-05-22T12:58:27.337Z,3.95
2023-05-22T13:03:50.277Z,3.95
2023-05-22T13:09:14.319Z,4.08
2023-05-22T13:14:38.515Z,6.55
2023-05-22T13:20:01.551Z,6.08
2023-05-22T13:25:24.766Z,4.05
2023-05-22T13:30:47.548Z,6.10
2023-05-22T13:36:10.538Z,3.22
2023-05-22T13:41:33.156Z,5.40
2023-05-22T13:46:55.617Z,2.65
2023-05-22T13:52:18.510Z,6.05
2023-05-22T13:57:41.684Z,4.97
2023-05-22T14:03:04.415Z,3.20
2023-05-22T14:08:27.479Z,5.92
2023-05-22T14:13:52.139Z,5.62
2023-05-22T14:19:14.611Z,5.60
2023-05-22T14:24:37.869Z,4.08
2023-05-22T14:30:00.817Z,6.33
2023-05-22T14:35:23.687Z,6.13
2023-05-22T14:40:46.406Z,3.27
2023-05-22T14:46:09.309Z,2.67
2023-05-22T14:51:33.043Z,8.63
2023-05-22T14:56:56.074Z,3.35
2023-05-22T15:02:19.445Z,4.73
2023-05-22T15:07:45.589Z,3.45
2023-05-22T15:13:06.708Z,3.70
2023-05-22T15:18:29.373Z,6.92
2023-05-22T15:23:52.023Z,3.08
2023-05-22T15:29:14.714Z,4.00
2023-05-22T15:34:37.101Z,4.78
2023-05-22T15:40:00.067Z,5.63
2023-05-22T15:45:22.619Z,4.20
2023-05-22T15:50:45.882Z,4.53
2023-05-22T15:56:10.363Z,5.47
2023-05-22T16:01:32.802Z,3.50
2023-05-22T16:06:55.282Z,4.53
2023-05-22T16:12:18.275Z,3.37
2023-05-22T16:17:40.924Z,6.42
2023-05-22T16:23:03.539Z,4.33
2023-05-22T16:28:26.043Z,4.37
2023-05-22T16:33:49.280Z,5.43
2023-05-22T16:39:11.585Z,6.00
2023-05-22T16:44:34.277Z,7.27
2023-05-22T16:49:58.874Z,5.35
2023-05-22T16:55:22.793Z,4.47
2023-05-22T17:00:45.086Z,6.55
2023-05-22T17:06:09.235Z,3.43
2023-05-22T17:11:31.578Z,3.87
2023-05-22T17:16:54.588Z,3.60
2023-05-22T17:22:17.156Z,4.53
2023-05-22T17:27:39.711Z,3.42
2023-05-22T17:33:03.996Z,8.88
2023-05-22T17:38:26.787Z,4.63
2023-05-22T17:43:49.909Z,4.20
2023-05-22T17:49:12.362Z,3.10
2023-05-22T17:54:36.842Z,4.78
2023-05-22T17:59:59.118Z,4.60
2023-05-22T18:05:22.897Z,4.58
2023-05-22T18:10:45.186Z,4.17
2023-05-22T18:16:08.066Z,5.57
2023-05-22T18:21:31.206Z,4.95
2023-05-22T18:26:55.008Z,6.10
2023-05-22T18:32:17.375Z,8.50
2023-05-22T18:37:39.788Z,6.65
2023-05-22T18:43:02.442Z,6.97
2023-05-22T18:48:25.275Z,6.77
2023-05-22T18:53:48.140Z,4.37
2023-05-22T18:59:10.925Z,8.23
2023-05-22T19:04:33.579Z,7.22
2023-05-22T19:09:56.167Z,8.15
2023-05-22T19:15:19.066Z,6.65
2023-05-22T19:20:42.172Z,4.37
2023-05-22T19:26:05.956Z,5.87
2023-05-22T19:31:29.650Z,11.40
2023-05-22T19:36:55.285Z,7.50
2023-05-22T19:42:18.557Z,8.63
2023-05-22T19:47:41.785Z,7.20
2023-05-22T19:53:04.642Z,6.83
2023-05-22T19:58:26.956Z,7.42
2023-05-22T20:03:49.635Z,6.25
2023-05-22T20:09:12.241Z,8.58
2023-05-22T20:14:34.731Z,7.08
2023-05-22T20:19:59.523Z,8.63
2023-05-22T20:25:22.540Z,12.15
2023-05-22T20:30:45.968Z,7.42
2023-05-22T20:36:09.123Z,7.60
2023-05-22T20:41:32.091Z,6.87
2023-05-22T20:46:55.080Z,9.68
2023-05-22T20:52:17.523Z,10.10
2023-05-22T20:57:40.684Z,15.15
2023-05-22T21:03:03.106Z,10.38
2023-05-22T21:08:25.717Z,9.48
2023-05-22T21:13:48.364Z,8.33
2023-05-22T21:19:10.686Z,8.85
2023-05-22T21:24:33.458Z,9.40
2023-05-22T21:29:55.751Z,5.45
2023-05-22T21:35:18.314Z,5.92
2023-05-22T21:40:42.505Z,8.63
2023-05-22T21:46:05.084Z,9.00
2023-05-22T21:51:27.437Z,9.00
2023-05-22T21:56:49.814Z,8.28
2023-05-22T22:02:12.276Z,5.70
2023-05-22T22:07:34.655Z,9.23
2023-05-22T22:12:57.024Z,9.00
2023-05-22T22:18:19.300Z,6.28
2023-05-22T22:23:41.669Z,9.68
2023-05-22T22:29:04.031Z,9.10
2023-05-22T22:34:26.331Z,7.28
2023-05-22T22:39:48.761Z,10.23
2023-05-22T22:45:11.445Z,8.90
2023-05-22T22:50:34.133Z,8.40
2023-05-22T22:55:59.555Z,5.50
2023-05-22T23:01:21.935Z,9.33
2023-05-22T23:06:44.215Z,14.65
2023-05-22T23:12:06.952Z,11.95
2023-05-22T23:17:29.654Z,6.70
2023-05-22T23:22:52.170Z,8.78
2023-05-22T23:28:14.465Z,6.40
2023-05-22T23:33:37.272Z,8.15
2023-05-22T23:39:00.064Z,9.58
2023-05-22T23:44:22.615Z,8.53
2023-05-22T23:49:45.002Z,7.75
2023-05-22T23:55:07.457Z,7.03
